Time;durP1;ratioP1;P1;durP2;ratioP2;P2;SDS_P1;SDS_P2;PMS_P1;PMS_P2;Temp;Humidity;BMP_temperature;BMP_pressure;BME280_temperature;BME280_humidity;BME280_pressure;Samples;Min_cycle;Max_cycle;Signal;HPM_P1;HPM_P2
2022/06/07 00:01:27;;;;;;;13.40;12.00;;;;;;;13.03;100.00;101338.81;5053754;28;20107;-36
2022/06/07 00:03:53;;;;;;;13.87;12.47;;;;;;;13.01;100.00;101336.34;5053285;28;20461;-36
2022/06/07 00:06:18;;;;;;;14.57;13.13;;;;;;;13.01;100.00;101333.66;5052255;28;20280;-36
2022/06/07 00:08:44;;;;;;;15.65;13.98;;;;;;;13.04;100.00;101335.91;5053046;28;20035;-36
2022/06/07 00:11:10;;;;;;;14.23;12.77;;;;;;;13.08;100.00;101334.38;5053537;28;20025;-36
2022/06/07 00:13:35;;;;;;;14.88;13.48;;;;;;;13.07;100.00;101335.41;5053272;28;20025;-37
2022/06/07 00:16:01;;;;;;;15.93;14.07;;;;;;;13.11;100.00;101339.31;5053538;28;20029;-36
2022/06/07 00:18:26;;;;;;;15.52;14.02;;;;;;;13.03;100.00;101327.97;5053423;28;20386;-36
2022/06/07 00:20:51;;;;;;;17.03;15.23;;;;;;;13.04;100.00;101335.91;5053321;28;20056;-36
2022/06/07 00:23:18;;;;;;;16.65;14.48;;;;;;;13.02;100.00;101329.03;5052892;28;20142;-36
2022/06/07 00:25:46;;;;;;;18.30;14.30;;;;;;;13.02;100.00;101326.31;5052825;28;20025;-37
2022/06/07 00:28:11;;;;;;;16.23;14.50;;;;;;;13.05;100.00;101326.69;5053117;28;20467;-36
2022/06/07 00:30:37;;;;;;;17.33;15.32;;;;;;;13.04;100.00;101319.59;5053903;28;20032;-36
2022/06/07 00:33:03;;;;;;;16.23;14.52;;;;;;;13.04;100.00;101318.78;5052811;28;20033;-36
2022/06/07 00:35:29;;;;;;;17.23;14.90;;;;;;;12.96;100.00;101306.38;5053321;28;20025;-36
2022/06/07 00:37:54;;;;;;;16.70;15.02;;;;;;;13.01;100.00;101308.38;5052829;28;20025;-36
2022/06/07 00:40:19;;;;;;;16.48;14.70;;;;;;;12.97;100.00;101299.06;5051868;28;20036;-36
2022/06/07 00:42:45;;;;;;;17.60;15.75;;;;;;;13.03;100.00;101307.09;5053282;28;20025;-36
2022/06/07 00:45:17;;;;;;;17.38;15.20;;;;;;;12.95;100.00;101296.59;5052917;28;20086;-36
2022/06/07 00:47:43;;;;;;;18.73;16.75;;;;;;;12.96;100.00;101311.81;5053677;28;20361;-36
2022/06/07 00:50:47;;;;;;;17.42;15.73;;;;;;;13.04;100.00;101310.63;5053402;28;20033;-36
2022/06/07 00:53:26;;;;;;;17.45;15.65;;;;;;;13.04;100.00;101306.03;5053229;28;20033;-36
2022/06/07 00:55:52;;;;;;;17.42;15.50;;;;;;;12.96;100.00;101294.69;5053602;28;20460;-36
2022/06/07 00:58:19;;;;;;;16.75;15.15;;;;;;;13.05;100.00;101304.16;5053436;28;20036;-36
2022/06/07 01:00:44;;;;;;;17.85;16.00;;;;;;;13.03;100.00;101309.81;5052555;28;20032;-36
2022/06/07 01:03:10;;;;;;;19.15;16.73;;;;;;;13.02;100.00;101300.00;5053585;28;20032;-36
2022/06/07 01:05:36;;;;;;;17.88;16.13;;;;;;;13.02;100.00;101288.31;5053295;28;20488;-37
2022/06/07 01:10:47;;;;;;;17.02;15.25;;;;;;;13.02;100.00;101282.88;5056903;28;20726;-36
2022/06/07 01:13:15;;;;;;;17.83;15.98;;;;;;;13.03;100.00;101290.81;5056614;28;20086;-36
2022/06/07 01:15:45;;;;;;;17.02;15.20;;;;;;;12.91;100.00;101272.88;5056527;28;20047;-36
2022/06/07 01:18:11;;;;;;;17.15;14.63;;;;;;;13.04;100.00;101289.75;5056758;28;20029;-36
2022/06/07 01:20:37;;;;;;;16.58;14.98;;;;;;;13.06;100.00;101284.91;5056826;28;20029;-37
2022/06/07 01:23:02;;;;;;;17.15;14.82;;;;;;;13.02;100.00;101281.00;5056316;28;20457;-36
2022/06/07 01:25:28;;;;;;;17.00;15.27;;;;;;;13.06;100.00;101281.34;5054956;28;20128;-36
2022/06/07 01:27:53;;;;;;;15.60;14.05;;;;;;;13.03;100.00;101273.66;5056880;28;20025;-36
2022/06/07 01:30:19;;;;;;;16.30;14.13;;;;;;;13.07;100.00;101283.00;5056225;28;20029;-36
2022/06/07 01:32:44;;;;;;;15.35;13.85;;;;;;;13.08;100.00;101282.78;5056702;28;20317;-36
2022/06/07 01:35:10;;;;;;;14.93;13.43;;;;;;;13.02;100.00;101266.59;5054705;28;20041;-36
2022/06/07 01:37:36;;;;;;;15.52;13.98;;;;;;;13.06;100.00;101276.75;5056674;28;20021;-36
2022/06/07 01:42:45;;;;;;;14.90;13.18;;;;;;;13.07;100.00;101275.69;5055758;28;20288;-37
2022/06/07 01:45:11;;;;;;;15.13;12.90;;;;;;;12.98;100.00;101268.13;5056214;28;20025;-36
2022/06/07 01:47:37;;;;;;;14.93;13.40;;;;;;;12.99;100.00;101261.66;5056160;28;20029;-36
2022/06/07 01:50:05;;;;;;;14.10;12.80;;;;;;;13.03;100.00;101263.66;5056018;28;20067;-36
2022/06/07 01:52:33;;;;;;;15.80;12.85;;;;;;;12.95;100.00;101249.63;5055719;28;20048;-36
2022/06/07 01:54:58;;;;;;;13.85;12.55;;;;;;;13.01;100.00;101254.91;5055359;28;20362;-36
2022/06/07 01:57:24;;;;;;;13.60;12.18;;;;;;;12.93;100.00;101241.69;5055356;28;20037;-36
2022/06/07 01:59:50;;;;;;;13.25;11.93;;;;;;;12.97;100.00;101248.31;5055559;28;20029;-36
2022/06/07 02:02:16;;;;;;;12.57;11.38;;;;;;;12.99;100.00;101257.06;5055584;28;20037;-36
2022/06/07 02:04:43;;;;;;;13.13;11.80;;;;;;;12.89;100.00;101244.06;5055771;28;20097;-36
2022/06/07 02:07:10;;;;;;;12.05;10.85;;;;;;;12.91;100.00;101256.56;5055219;28;20385;-36
2022/06/07 02:09:35;;;;;;;11.05;9.95;;;;;;;12.80;100.00;101241.94;5055728;28;20167;-36
2022/06/07 02:12:02;;;;;;;11.55;10.35;;;;;;;12.85;100.00;101251.03;5055384;28;20061;-36
2022/06/07 02:14:29;;;;;;;11.43;8.85;;;;;;;12.85;100.00;101259.19;5055938;28;20028;-36
2022/06/07 02:16:55;;;;;;;10.30;9.20;;;;;;;12.86;100.00;101249.97;5055332;28;20025;-36
2022/06/07 02:19:20;;;;;;;12.32;9.82;;;;;;;12.82;100.00;101251.50;5054926;28;20036;-36
2022/06/07 02:21:45;;;;;;;11.07;9.98;;;;;;;12.84;100.00;101249.38;5054850;28;20478;-36
2022/06/07 02:24:11;;;;;;;9.30;8.20;;;;;;;12.75;100.00;101233.69;5055278;28;20494;-36
2022/06/07 02:26:54;;;;;;;9.82;8.77;;;;;;;12.86;100.00;101241.81;5055554;28;20103;-36
2022/06/07 02:29:25;;;;;;;8.55;7.70;;;;;;;12.85;100.00;101251.03;5054870;28;20048;-36
2022/06/07 02:31:58;;;;;;;9.73;7.95;;;;;;;12.83;100.00;101252.31;5054559;28;20043;-36
2022/06/07 02:34:24;;;;;;;9.45;7.57;;;;;;;12.79;100.00;101245.72;5055312;28;20033;-36
2022/06/07 02:36:55;;;;;;;9.70;7.82;;;;;;;12.80;100.00;101244.66;5054801;28;20535;-36
2022/06/07 02:39:21;;;;;;;9.65;7.50;;;;;;;12.77;100.00;101245.94;5055536;28;20021;-36
2022/06/07 02:41:47;;;;;;;;;;;;;;;12.87;100.00;101242.66;5055358;28;20311;-36
2022/06/07 02:44:12;;;;;;;9.27;6.85;;;;;;;12.78;100.00;101233.19;5054827;28;19951;-36
2022/06/07 02:46:38;;;;;;;12.05;7.10;;;;;;;12.75;100.00;101231.81;5054824;28;20071;-36
2022/06/07 02:49:03;;;;;;;9.03;7.63;;;;;;;12.78;100.00;101230.50;5054504;28;20455;-36
2022/06/07 02:51:29;;;;;;;7.97;7.15;;;;;;;12.74;100.00;101237.47;5054469;28;20125;-36
2022/06/07 02:53:56;;;;;;;10.48;7.20;;;;;;;12.71;100.00;101230.63;5055104;28;20112;-36
2022/06/07 02:56:22;;;;;;;12.77;7.10;;;;;;;12.62;100.00;101213.84;5054349;28;20087;-36
2022/06/07 02:58:47;;;;;;;9.80;6.45;;;;;;;12.70;100.00;101228.16;5054776;28;20033;-36
2022/06/07 03:01:13;;;;;;;9.85;6.70;;;;;;;12.74;100.00;101235.59;5054208;28;20036;-36
2022/06/07 03:03:38;;;;;;;8.27;6.37;;;;;;;12.71;100.00;101237.94;5052768;28;20044;-36
2022/06/07 03:06:04;;;;;;;5.65;5.05;;;;;;;12.60;100.00;101221.41;5053880;28;20032;-36
2022/06/07 03:08:30;;;;;;;7.70;5.90;;;;;;;12.67;100.00;101236.75;5053827;28;20033;-36
2022/06/07 03:10:55;;;;;;;7.53;5.63;;;;;;;12.66;100.00;101229.69;5053952;28;20051;-36
2022/06/07 03:13:21;;;;;;;8.18;5.75;;;;;;;12.63;100.00;101239.91;5053962;28;20485;-37
2022/06/07 03:15:47;;;;;;;6.75;5.07;;;;;;;12.60;100.00;101237.69;5053643;28;20037;-36
2022/06/07 03:18:12;;;;;;;6.78;5.05;;;;;;;12.63;100.00;101244.53;5053875;28;20029;-36
2022/06/07 03:20:38;;;;;;;5.78;4.80;;;;;;;12.60;100.00;101243.13;5053797;28;20043;-36
2022/06/07 03:23:04;;;;;;;6.30;5.00;;;;;;;12.62;100.00;101251.84;5053771;28;20107;-36
2022/06/07 03:25:30;;;;;;;5.88;4.88;;;;;;;12.61;100.00;101243.94;5053879;28;20132;-36
2022/06/07 03:27:55;;;;;;;8.75;4.72;;;;;;;12.54;100.00;101237.78;5054000;28;20116;-36
2022/06/07 03:30:21;;;;;;;7.93;4.90;;;;;;;12.52;100.00;101239.91;5053037;28;20056;-36
2022/06/07 03:32:46;;;;;;;7.68;5.10;;;;;;;12.49;100.00;101243.09;5053655;28;20275;-36
2022/06/07 03:35:14;;;;;;;6.63;4.68;;;;;;;12.55;100.00;101261.16;5053509;28;20021;-36
2022/06/07 03:37:39;;;;;;;6.35;4.60;;;;;;;12.52;100.00;101257.03;5053953;28;20036;-36
2022/06/07 03:40:08;;;;;;;6.80;4.45;;;;;;;12.52;99.98;101256.19;5054164;28;20029;-36
2022/06/07 03:42:34;;;;;;;5.28;4.35;;;;;;;12.50;100.00;101263.75;5054214;28;20033;-36
2022/06/07 03:44:59;;;;;;;6.55;4.70;;;;;;;12.45;100.00;101255.50;5053362;28;20108;-36
2022/06/07 03:47:24;;;;;;;7.63;4.40;;;;;;;12.48;100.00;101268.56;5053855;28;20040;-36
2022/06/07 03:49:50;;;;;;;6.67;4.43;;;;;;;12.49;100.00;101271.06;5053260;28;20029;-36
2022/06/07 03:52:16;;;;;;;6.07;4.63;;;;;;;12.41;100.00;101257.84;5054190;28;20291;-36
2022/06/07 03:54:42;;;;;;;6.13;4.40;;;;;;;12.49;100.00;101265.66;5053622;28;20267;-36
2022/06/07 03:57:08;;;;;;;6.82;4.20;;;;;;;12.45;100.00;101271.75;5053710;28;20377;-36
2022/06/07 03:59:34;;;;;;;6.40;4.68;;;;;;;12.47;100.00;101281.31;5053384;28;20350;-36
2022/06/07 04:01:59;;;;;;;6.37;3.87;;;;;;;12.38;100.00;101266.44;5053833;28;20033;-36
2022/06/07 04:04:25;;;;;;;6.85;4.18;;;;;;;12.47;100.00;101284.03;5053425;28;20275;-36
2022/06/07 04:09:39;;;;;;;11.85;4.20;;;;;;;12.47;99.84;101270.47;5053133;28;20048;-36
2022/06/07 04:12:10;;;;;;;6.30;4.10;;;;;;;12.43;99.44;101277.41;5053716;28;20090;-36
2022/06/07 04:14:41;;;;;;;5.82;4.18;;;;;;;12.48;99.59;101276.72;5052826;28;20059;-36
2022/06/07 04:17:07;;;;;;;9.60;4.70;;;;;;;12.40;99.93;101269.75;5053147;28;20060;-36
2022/06/07 04:19:33;;;;;;;6.38;4.28;;;;;;;12.48;99.99;101276.72;5053099;28;20448;-36
2022/06/07 04:21:59;;;;;;;4.45;3.88;;;;;;;12.35;100.00;101264.19;5052857;28;20067;-36
2022/06/07 04:24:24;;;;;;;5.40;4.37;;;;;;;12.36;99.79;101268.56;5052829;28;20029;-36
2022/06/07 04:26:49;;;;;;;4.80;3.93;;;;;;;12.39;99.45;101273.50;5053390;28;20393;-36
2022/06/07 04:29:15;;;;;;;7.33;4.10;;;;;;;12.45;100.00;101278.00;5052770;28;20025;-36
2022/06/07 04:31:40;;;;;;;6.50;4.35;;;;;;;12.47;100.00;101286.72;5053094;28;20263;-36
2022/06/07 04:34:06;;;;;;;5.93;4.45;;;;;;;12.51;100.00;101287.09;5052921;28;20025;-36
2022/06/07 04:36:32;;;;;;;5.15;4.18;;;;;;;12.51;100.00;101289.81;5052440;28;20032;-36
2022/06/07 04:39:00;;;;;;;6.20;4.72;;;;;;;12.51;99.95;101290.63;5052362;28;20036;-36
2022/06/07 04:41:26;;;;;;;8.50;5.00;;;;;;;12.44;99.70;101276.34;5053124;28;20029;-36
2022/06/07 04:43:53;;;;;;;6.82;4.30;;;;;;;12.37;99.80;101262.06;5055831;28;20539;-36
2022/06/07 04:46:19;;;;;;;8.23;5.03;;;;;;;12.45;100.00;101278.00;5056891;28;20104;-36
2022/06/07 04:48:46;;;;;;;7.03;4.80;;;;;;;12.51;100.00;101289.81;5056439;28;20071;-36
2022/06/07 04:51:20;;;;;;;5.75;4.80;;;;;;;12.53;100.00;101291.22;5056719;28;20056;-36
2022/06/07 04:53:47;;;;;;;6.90;4.70;;;;;;;12.55;100.00;101283.69;5056680;28;20035;-36
2022/06/07 04:56:16;;;;;;;5.85;4.82;;;;;;;12.55;99.90;101286.41;5056357;28;20473;-36
2022/06/07 04:58:42;;;;;;;7.78;5.32;;;;;;;12.62;99.78;101287.09;5056292;28;20439;-36
2022/06/07 05:01:10;;;;;;;7.47;4.88;;;;;;;12.59;99.92;101284.03;5057381;28;20111;-36
2022/06/07 05:03:35;;;;;;;7.03;5.30;;;;;;;12.68;100.00;101293.47;5056405;28;20086;-36
2022/06/07 05:06:00;;;;;;;5.60;4.80;;;;;;;12.74;100.00;101291.75;5057050;28;20470;-36
2022/06/07 05:08:26;;;;;;;6.80;5.20;;;;;;;12.74;99.89;101299.88;5056513;28;20052;-36
2022/06/07 05:10:53;;;;;;;7.93;5.73;;;;;;;12.80;100.00;101294.34;5056742;28;20306;-36
2022/06/07 05:13:19;;;;;;;8.85;5.72;;;;;;;12.84;100.00;101294.69;5055886;28;20033;-36
2022/06/07 05:15:53;;;;;;;7.65;5.80;;;;;;;12.83;100.00;101283.03;5056387;28;20029;-36
2022/06/07 05:18:18;;;;;;;7.95;5.70;;;;;;;12.93;100.00;101295.16;5056372;28;20032;-36
2022/06/07 05:20:44;;;;;;;8.13;5.88;;;;;;;12.93;99.70;101301.41;5056135;28;20033;-36
2022/06/07 05:23:09;;;;;;;8.75;6.32;;;;;;;13.00;99.98;101301.31;5056115;28;20029;-36
2022/06/07 05:25:34;;;;;;;9.73;6.00;;;;;;;12.95;100.00;101280.31;5056145;28;20033;-36
2022/06/07 05:28:00;;;;;;;8.57;6.67;;;;;;;12.87;99.51;101262.47;5055701;28;20286;-36
2022/06/07 05:30:25;;;;;;;9.32;6.85;;;;;;;13.07;99.98;101299.28;5055755;28;20024;-36
2022/06/07 05:32:50;;;;;;;9.57;7.30;;;;;;;13.08;99.30;101298.25;5055669;28;20025;-36
2022/06/07 05:35:16;;;;;;;8.97;7.10;;;;;;;13.07;100.00;101297.41;5055962;28;20101;-36
2022/06/07 05:37:41;;;;;;;10.40;7.65;;;;;;;13.15;99.88;101296.22;5056118;28;20267;-36
2022/06/07 05:40:07;;;;;;;8.63;7.53;;;;;;;12.97;99.64;101259.16;5056315;28;20504;-36
2022/06/07 05:42:33;;;;;;;9.70;7.70;;;;;;;13.20;99.95;101293.63;5055924;28;20113;-36
2022/06/07 05:44:58;;;;;;;10.73;8.00;;;;;;;13.15;99.91;101293.50;5055771;28;20048;-36
2022/06/07 05:47:24;;;;;;;9.20;7.47;;;;;;;13.22;99.89;101294.22;5055683;28;20049;-36
2022/06/07 05:49:49;;;;;;;11.13;8.13;;;;;;;13.19;99.63;101299.31;5055590;28;20043;-36
2022/06/07 05:52:14;;;;;;;11.10;8.30;;;;;;;13.16;99.77;101300.59;5055960;28;20056;-36
2022/06/07 05:54:40;;;;;;;10.23;7.50;;;;;;;13.12;99.65;101280.41;5056184;28;20036;-36
2022/06/07 05:57:07;;;;;;;9.75;8.05;;;;;;;13.11;99.84;101287.72;5055892;28;20271;-36
2022/06/07 05:59:32;;;;;;;10.25;8.75;;;;;;;13.20;99.88;101301.78;5055327;28;20036;-36
2022/06/07 06:01:58;;;;;;;10.35;7.50;;;;;;;13.23;99.95;101301.34;5055679;28;20029;-34
2022/06/07 06:04:25;;;;;;;11.30;8.60;;;;;;;13.19;100.00;101294.69;5055233;28;20040;-35
2022/06/07 06:06:53;;;;;;;10.30;8.25;;;;;;;13.18;100.00;101292.22;5056305;28;20314;-35
2022/06/07 06:12:03;;;;;;;10.55;8.32;;;;;;;13.27;100.00;101299.78;5055852;28;20496;-36
2022/06/07 06:14:28;;;;;;;12.88;8.15;;;;;;;13.25;99.02;101298.38;5055689;28;20025;-35
2022/06/07 06:16:54;;;;;;;10.45;7.75;;;;;;;13.33;99.79;101307.00;5055599;28;20374;-35
2022/06/07 06:19:20;;;;;;;8.95;7.68;;;;;;;13.36;99.63;101308.41;5055230;28;20036;-36
2022/06/07 06:21:46;;;;;;;9.88;7.50;;;;;;;13.43;99.97;101300.97;5055533;28;20053;-35
2022/06/07 06:24:12;;;;;;;11.15;8.50;;;;;;;13.46;98.91;101305.06;5055136;28;20087;-36
2022/06/07 06:26:39;;;;;;;9.07;8.15;;;;;;;13.49;99.15;101313.59;5055804;28;20029;-35
2022/06/07 06:29:08;;;;;;;13.02;8.57;;;;;;;13.54;98.82;101308.25;5055126;28;20036;-35
2022/06/07 06:31:34;;;;;;;13.93;9.35;;;;;;;13.62;98.95;101302.47;5055557;28;20090;-35
2022/06/07 06:34:00;;;;;;;12.35;8.48;;;;;;;13.65;98.72;101293.81;5055746;28;20029;-35
2022/06/07 06:36:26;;;;;;;;;;;;;;;13.96;98.83;101302.59;5055705;28;20040;-35
2022/06/07 06:38:53;;;;;;;11.90;9.73;;;;;;;13.99;98.72;101293.94;5054943;28;19913;-35
2022/06/07 06:41:21;;;;;;;11.75;9.48;;;;;;;14.19;98.31;101293.50;5055590;28;20032;-35
2022/06/07 06:43:47;;;;;;;14.15;10.15;;;;;;;14.33;96.90;101302.19;5055560;28;20036;-35
2022/06/07 06:46:19;;;;;;;13.55;9.77;;;;;;;14.46;96.85;101304.59;5055118;28;20025;-35
2022/06/07 06:48:44;;;;;;;13.02;10.23;;;;;;;14.53;95.62;101309.91;5037297;28;20064;-35
2022/06/07 06:51:11;;;;;;;;;;;;;;;14.69;97.17;101292.78;5055511;28;20088;-35
2022/06/07 06:53:38;;;;;;;16.33;11.07;;;;;;;14.61;95.58;101282.28;5054654;28;19966;-35
2022/06/07 06:56:05;;;;;;;14.35;11.95;;;;;;;14.75;96.09;101297.22;5054974;28;20033;-35
2022/06/07 06:58:30;;;;;;;13.23;11.82;;;;;;;14.81;95.16;101292.69;5054848;28;20029;-35
2022/06/07 07:01:04;;;;;;;13.30;11.48;;;;;;;14.85;94.61;101307.44;5055207;28;20113;-36
2022/06/07 07:03:31;;;;;;;13.38;12.00;;;;;;;14.80;95.21;101302.75;5053585;28;20048;-35
2022/06/07 07:05:56;;;;;;;16.33;12.55;;;;;;;14.86;95.14;101309.09;5054438;28;20424;-35
2022/06/07 07:08:25;;;;;;;17.33;13.52;;;;;;;14.77;94.97;101303.22;5054395;28;20075;-35
2022/06/07 07:11:03;;;;;;;16.10;12.75;;;;;;;14.96;95.73;101309.25;5054466;28;20040;-35
2022/06/07 07:13:30;;;;;;;13.60;12.25;;;;;;;14.92;94.46;101306.19;5054063;28;20458;-35
2022/06/07 07:15:55;;;;;;;;;;;;;;;15.04;94.93;101310.75;5053465;28;20033;-35
2022/06/07 07:18:20;;;;;;;14.00;12.50;;;;;;;14.92;95.06;101308.91;5054155;28;19915;-35
2022/06/07 07:20:45;;;;;;;13.43;12.03;;;;;;;14.83;95.16;101290.53;5053911;28;20029;-35
2022/06/07 07:23:11;;;;;;;14.00;12.67;;;;;;;15.05;95.16;101312.38;5054057;28;20303;-36
2022/06/07 07:25:36;;;;;;;14.40;12.90;;;;;;;15.23;95.53;101317.56;5053735;28;20259;-35
2022/06/07 07:28:01;;;;;;;13.95;12.55;;;;;;;15.42;94.90;101318.94;5054118;28;20271;-35
2022/06/07 07:30:27;;;;;;;;;;;;;;;15.57;94.99;101310.13;5055395;28;20403;-36
2022/06/07 07:32:53;;;;;;;14.73;13.13;;;;;;;15.44;94.10;101299.59;5053954;28;19913;-35
2022/06/07 07:35:19;;;;;;;16.17;13.23;;;;;;;15.51;94.01;101305.66;5053682;28;20029;-35
2022/06/07 07:37:45;;;;;;;15.55;13.52;;;;;;;15.53;93.78;101306.25;5054086;28;20032;-35
2022/06/07 07:40:10;;;;;;;16.83;13.57;;;;;;;15.53;93.01;101303.53;5053480;28;20036;-35
2022/06/07 07:42:36;;;;;;;;;;;;;;;15.75;94.05;101314.47;5054071;28;20082;-35
2022/06/07 07:45:01;;;;;;;16.53;13.87;;;;;;;15.74;93.83;101312.00;5053851;28;20265;-35
2022/06/07 07:47:26;;;;;;;16.40;14.35;;;;;;;15.78;94.07;101308.50;5053770;28;20735;-35
2022/06/07 07:49:54;;;;;;;;;;;;;;;15.90;93.03;101308.38;5053797;28;20033;-36
2022/06/07 07:52:21;;;;;;;15.88;14.18;;;;;;;15.82;92.14;101301.47;5054646;28;19920;-35
2022/06/07 07:54:46;;;;;;;15.60;14.07;;;;;;;15.89;91.77;101315.72;5053624;28;20444;-35
2022/06/07 07:57:11;;;;;;;;;;;;;;;16.00;92.02;101311.22;5054656;28;20037;-36
2022/06/07 07:59:37;;;;;;;15.50;13.80;;;;;;;15.93;92.50;101310.59;5053889;28;19916;-36
2022/06/07 08:02:02;;;;;;;;;;;;;;;16.05;92.96;101313.16;5054000;28;20060;-36
2022/06/07 08:04:28;;;;;;;13.77;12.38;;;;;;;15.95;92.00;101305.69;5053276;28;19955;-35
2022/06/07 08:06:53;;;;;;;15.32;13.82;;;;;;;16.12;92.91;101311.91;5053896;28;20048;-35
2022/06/07 08:09:20;;;;;;;;;;;;;;;16.27;92.56;101311.22;5052590;28;20027;-35
2022/06/07 08:11:46;;;;;;;15.97;13.47;;;;;;;16.09;88.99;101289.75;5053277;28;20353;-35
2022/06/07 08:14:15;;;;;;;17.05;14.15;;;;;;;16.21;88.68;101317.72;5053060;28;20036;-35
2022/06/07 08:16:41;;;;;;;16.23;14.63;;;;;;;16.25;88.53;101309.81;5053397;28;20381;-35
2022/06/07 08:19:08;;;;;;;;;;;;;;;16.43;89.26;101306.75;5053693;28;20389;-35
2022/06/07 08:21:34;;;;;;;14.32;12.93;;;;;;;16.49;89.89;101300.25;5052696;28;19920;-36
2022/06/07 08:23:59;;;;;;;16.20;14.70;;;;;;;16.46;87.70;101308.97;5053010;28;20025;-35
2022/06/07 08:26:29;;;;;;;;;;;;;;;16.60;88.96;101309.38;5054107;28;20025;-35
2022/06/07 08:28:55;;;;;;;14.05;12.65;;;;;;;16.53;86.62;101309.56;5053322;28;20356;-35
2022/06/07 08:31:24;;;;;;;15.38;14.00;;;;;;;16.42;87.26;101295.00;5052813;28;20032;-35
2022/06/07 08:39:18;;;;;;;15.63;14.07;;;;;;;16.59;87.60;101296.78;5053372;28;20036;-35
2022/06/07 08:41:46;;;;;;;;;;;;;;;16.84;88.08;101304.41;5053753;28;20040;-35
2022/06/07 08:44:22;;;;;;;16.45;14.75;;;;;;;16.94;86.80;101309.94;5053159;28;20479;-35
2022/06/07 08:46:52;;;;;;;15.45;13.95;;;;;;;17.22;87.11;101304.09;5052945;28;20025;-35
2022/06/07 08:49:19;;;;;;;16.13;14.43;;;;;;;17.43;84.93;101315.19;5052369;28;20079;-36
2022/06/07 08:52:05;;;;;;;14.35;12.48;;;;;;;17.75;85.80;101294.00;5053135;28;20103;-35
2022/06/07 08:54:37;;;;;;;13.40;12.20;;;;;;;18.08;83.55;101294.66;5052894;28;20029;-35
2022/06/07 08:57:23;;;;;;;13.13;11.82;;;;;;;18.13;81.08;101297.41;5052646;28;20036;-36
2022/06/07 08:59:54;;;;;;;13.88;12.23;;;;;;;18.25;80.58;101295.25;5053205;28;20457;-35
2022/06/07 09:02:47;;;;;;;12.68;11.35;;;;;;;18.35;80.72;101299.91;5052806;28;20028;-36
2022/06/07 09:05:15;;;;;;;13.48;11.43;;;;;;;18.40;78.81;101301.84;5053012;28;20098;-36
2022/06/07 09:07:41;;;;;;;12.35;11.13;;;;;;;18.41;77.58;101298.00;5052976;28;20029;-36
2022/06/07 09:13:06;;;;;;;11.60;10.50;;;;;;;18.40;76.61;101304.59;5052875;28;19919;-35
2022/06/07 09:15:35;;;;;;;11.35;10.32;;;;;;;18.49;77.22;101295.53;5052346;28;20480;-35
2022/06/07 09:18:04;;;;;;;11.43;10.18;;;;;;;18.45;76.44;101294.47;5052674;28;20112;-35
2022/06/07 09:20:41;;;;;;;11.38;10.13;;;;;;;18.42;76.48;101289.50;5052069;28;20549;-36
2022/06/07 09:23:23;;;;;;;10.90;9.90;;;;;;;18.34;76.05;101284.56;5069105;28;20050;-35
2022/06/07 09:25:52;;;;;;;10.40;9.40;;;;;;;18.44;76.19;101295.53;5092883;28;20028;-35
2022/06/07 09:28:20;;;;;;;10.93;9.10;;;;;;;18.47;74.98;101294.16;5095657;28;20115;-35
2022/06/07 09:30:56;;;;;;;10.27;9.30;;;;;;;18.62;76.14;101294.16;5096041;28;20024;-36
2022/06/07 09:33:34;;;;;;;11.97;10.83;;;;;;;18.53;75.43;101302.09;5096531;28;20384;-35
2022/06/07 09:36:08;;;;;;;11.70;10.50;;;;;;;18.34;75.74;101301.00;5096610;28;20380;-35
2022/06/07 09:38:48;;;;;;;11.45;9.98;;;;;;;18.20;76.23;101302.59;5096198;28;20161;-35
2022/06/07 09:44:05;;;;;;;10.88;9.60;;;;;;;18.10;76.00;101297.13;5096480;28;20043;-35
2022/06/07 09:46:32;;;;;;;10.45;9.15;;;;;;;18.05;75.71;101297.91;5096538;28;20039;-35
2022/06/07 09:48:57;;;;;;;;;;;;;;;18.23;77.96;101297.41;5096431;28;20028;-36
2022/06/07 09:51:27;;;;;;;8.68;7.80;;;;;;;18.39;76.33;101284.56;5096383;28;19916;-35
2022/06/07 09:53:55;;;;;;;9.50;8.50;;;;;;;18.64;75.35;101288.41;5096116;28;20040;-36
2022/06/07 09:56:44;;;;;;;9.68;8.70;;;;;;;18.88;75.57;101291.44;5096384;28;20087;-35
2022/06/07 09:59:39;;;;;;;9.00;7.97;;;;;;;18.88;73.55;101277.75;5096028;28;20024;-36
2022/06/07 10:02:30;;;;;;;8.25;7.47;;;;;;;18.92;73.64;101284.31;5096340;28;20040;-35
2022/06/07 10:05:08;;;;;;;7.78;6.97;;;;;;;18.85;73.01;101270.09;5095780;28;20460;-35
2022/06/07 10:07:53;;;;;;;9.73;7.50;;;;;;;18.82;73.06;101281.59;5096133;28;20039;-35
2022/06/07 10:10:33;;;;;;;8.63;7.28;;;;;;;18.75;72.76;101281.88;5095265;28;20020;-35
2022/06/07 10:13:15;;;;;;;10.00;7.95;;;;;;;18.92;73.68;101281.59;5096088;28;20024;-35
2022/06/07 10:15:58;;;;;;;8.40;7.57;;;;;;;19.26;72.23;101270.81;5095794;28;20028;-36
2022/06/07 10:18:50;;;;;;;10.68;7.93;;;;;;;19.50;71.20;101271.00;5095494;28;20025;-36
2022/06/07 10:21:49;;;;;;;9.82;8.02;;;;;;;19.46;71.22;101270.75;5095922;28;20034;-36
2022/06/07 10:24:32;;;;;;;8.50;7.78;;;;;;;19.29;71.58;101273.00;5095579;28;20528;-36
2022/06/07 10:27:11;;;;;;;10.43;8.55;;;;;;;19.08;71.87;101275.00;5095292;28;20472;-36
2022/06/07 10:29:45;;;;;;;9.18;8.07;;;;;;;18.96;71.55;101271.72;5094400;28;20044;-36
2022/06/07 10:32:34;;;;;;;9.70;7.57;;;;;;;18.80;72.55;101256.41;5095811;28;20463;-35
2022/06/07 10:35:22;;;;;;;9.02;7.07;;;;;;;18.97;74.04;101256.91;5095504;28;20016;-36
2022/06/07 10:37:55;;;;;;;10.40;7.32;;;;;;;19.02;73.04;101270.59;5094644;28;20035;-36
2022/06/07 10:40:35;;;;;;;10.35;7.03;;;;;;;18.88;73.11;101277.75;5094441;28;20511;-36
2022/06/07 10:43:08;;;;;;;9.57;7.65;;;;;;;19.10;72.84;101269.22;5094772;28;20076;-36
2022/06/07 10:45:37;;;;;;;8.55;7.75;;;;;;;19.47;72.35;101271.56;5095371;28;20519;-36
2022/06/07 10:48:29;;;;;;;7.80;6.75;;;;;;;19.95;74.32;101266.44;5095072;28;20028;-36
2022/06/07 10:52:20;;;;;;;8.25;6.68;;;;;;;20.19;71.20;101259.13;5094699;28;20194;-36
2022/06/07 10:53:59;;;;;;;10.98;6.47;;;;;;;20.57;70.82;101265.75;5094510;28;20036;-36
2022/06/07 10:56:33;;;;;;;9.05;6.43;;;;;;;20.40;67.67;101251.59;5095010;28;20081;-36
2022/06/07 10:59:03;;;;;;;6.03;5.43;;;;;;;20.14;67.04;101253.69;5094777;28;20039;-36
2022/06/07 11:01:37;;;;;;;7.35;6.03;;;;;;;19.91;68.09;101259.88;5094920;28;20399;-36
2022/06/07 11:10:29;;;;;;;6.32;5.00;;;;;;;19.90;68.42;101247.25;5072379;28;20071;-36
2022/06/07 11:13:16;;;;;;;5.72;4.20;;;;;;;20.20;68.68;101248.97;5072024;28;20043;-36
2022/06/07 11:16:03;;;;;;;8.85;4.82;;;;;;;20.21;69.47;101245.97;5058903;28;20041;-36
2022/06/07 11:18:29;;;;;;;5.57;4.50;;;;;;;20.14;66.96;101242.69;5072332;28;20413;-36
2022/06/07 11:21:00;;;;;;;;;;;;;;;20.29;69.92;101245.31;5072063;28;20119;-36
2022/06/07 11:23:31;;;;;;;6.70;4.68;;;;;;;19.95;66.00;101234.31;5072251;28;19908;-36
2022/06/07 11:26:17;;;;;;;6.40;4.88;;;;;;;19.89;68.46;101240.94;5071464;28;20588;-36
2022/06/07 11:28:48;;;;;;;6.70;4.67;;;;;;;19.73;67.82;101245.72;5066508;28;20140;-36
2022/06/07 11:31:26;;;;;;;6.55;4.50;;;;;;;19.58;66.26;101239.44;5051360;28;20029;-36
2022/06/07 11:33:51;;;;;;;8.65;4.45;;;;;;;19.44;65.07;101250.19;5051262;28;20590;-36
2022/06/07 11:36:27;;;;;;;;;;;;;;;19.55;67.15;101251.78;5052346;28;20135;-36
2022/06/07 11:38:57;;;;;;;5.03;4.00;;;;;;;19.41;64.07;101250.75;5051992;28;19917;-36
2022/06/07 11:41:37;;;;;;;6.93;4.50;;;;;;;19.50;64.55;101257.31;5051676;28;20032;-36
2022/06/07 11:44:30;;;;;;;7.97;4.13;;;;;;;19.65;66.93;101254.53;5073593;28;20031;-36
2022/06/07 11:47:07;;;;;;;5.05;4.30;;;;;;;19.73;65.57;101250.38;5051291;28;20037;-36
2022/06/07 11:49:42;;;;;;;6.38;4.10;;;;;;;19.81;64.86;101249.75;5050830;28;20044;-36
2022/06/07 11:52:13;;;;;;;5.03;3.85;;;;;;;19.88;64.57;101243.97;5051588;28;20068;-36
2022/06/07 11:54:53;;;;;;;6.80;4.25;;;;;;;19.87;64.24;101247.84;5051109;28;20488;-36
2022/06/07 11:57:32;;;;;;;5.35;3.50;;;;;;;19.73;63.32;101242.97;5051360;28;20040;-36